createdAt,value
2023-01-11T00:00:47.884Z,92.09
2023-01-11T00:03:17.642Z,92.21
2023-01-11T00:05:44.806Z,92.43
2023-01-11T00:08:12.362Z,92.62
2023-01-11T00:10:41.243Z,92.86
2023-01-11T00:13:07.943Z,92.94
2023-01-11T00:15:36.030Z,92.79
2023-01-11T00:18:03.441Z,92.78
2023-01-11T00:20:30.145Z,92.50
2023-01-11T00:22:57.848Z,92.38
2023-01-11T00:25:25.137Z,92.36
2023-01-11T00:27:54.064Z,92.41
2023-01-11T00:30:21.464Z,92.55
2023-01-11T00:32:48.187Z,92.92
2023-01-11T00:35:15.350Z,92.78
2023-01-11T00:37:42.375Z,92.76
2023-01-11T00:40:09.534Z,92.87
2023-01-11T00:42:54.662Z,92.72
2023-01-11T00:45:40.004Z,92.70
2023-01-11T00:48:07.237Z,92.51
2023-01-11T00:50:39.344Z,92.53
2023-01-11T00:53:08.127Z,92.53
2023-01-11T00:55:35.913Z,92.58
2023-01-11T00:58:03.423Z,92.41
2023-01-11T01:00:30.408Z,92.54
2023-01-11T01:02:57.631Z,92.67
2023-01-11T01:05:24.442Z,92.50
2023-01-11T01:07:54.159Z,92.39
2023-01-11T01:10:21.261Z,92.14
2023-01-11T01:13:06.810Z,91.88
2023-01-11T01:15:33.995Z,92.00
2023-01-11T01:18:00.923Z,92.18
2023-01-11T01:20:28.200Z,91.91
2023-01-11T01:22:55.242Z,92.20
2023-01-11T01:25:21.931Z,92.50
2023-01-11T01:27:48.850Z,92.55
2023-01-11T01:30:16.335Z,92.62
2023-01-11T01:32:43.010Z,92.51
2023-01-11T01:35:09.904Z,92.62
2023-01-11T01:37:37.503Z,92.37
2023-01-11T01:40:05.125Z,92.32
2023-01-11T01:42:32.061Z,92.54
2023-01-11T01:45:28.271Z,92.68
2023-01-11T01:48:01.012Z,92.61
2023-01-11T01:50:31.576Z,92.45
2023-01-11T01:53:05.061Z,92.14
2023-01-11T01:55:36.659Z,91.89
2023-01-11T01:58:08.958Z,91.97
2023-01-11T02:00:39.269Z,92.00
2023-01-11T02:05:59.782Z,92.44
2023-01-11T02:08:33.902Z,92.75
2023-01-11T02:11:01.845Z,92.87
2023-01-11T02:13:28.548Z,92.60
2023-01-11T02:16:08.435Z,92.42
2023-01-11T02:18:36.000Z,92.33
2023-01-11T02:21:19.100Z,92.49
2023-01-11T02:23:45.845Z,92.31
2023-01-11T02:26:38.822Z,92.20
2023-01-11T02:29:25.606Z,92.36
2023-01-11T02:31:52.255Z,92.43
2023-01-11T02:34:18.965Z,92.61
2023-01-11T02:37:02.233Z,92.40
2023-01-11T02:39:32.002Z,92.36
2023-01-11T02:42:32.616Z,92.35
2023-01-11T02:45:17.905Z,92.08
2023-01-11T02:47:55.213Z,92.09
2023-01-11T02:50:29.227Z,92.22
2023-01-11T02:53:15.329Z,92.21
2023-01-11T02:55:47.124Z,91.92
2023-01-11T02:58:15.322Z,91.99
2023-01-11T03:00:42.736Z,91.97
2023-01-11T03:03:16.919Z,92.08
2023-01-11T03:05:46.923Z,92.14
2023-01-11T03:08:19.547Z,91.88
2023-01-11T03:11:04.541Z,92.04
2023-01-11T03:13:46.285Z,91.77
2023-01-11T03:16:13.542Z,91.64
2023-01-11T03:18:49.750Z,92.14
2023-01-11T03:21:25.023Z,92.29
2023-01-11T03:23:57.964Z,92.47
2023-01-11T03:26:30.652Z,92.28
2023-01-11T03:29:03.706Z,92.22
2023-01-11T03:31:38.969Z,92.33
2023-01-11T03:34:05.577Z,92.43
2023-01-11T03:36:45.483Z,92.54
2023-01-11T03:39:20.568Z,92.70
2023-01-11T03:41:49.834Z,92.51
2023-01-11T03:44:18.549Z,92.17
2023-01-11T03:46:51.116Z,92.16
2023-01-11T03:49:28.931Z,91.99
2023-01-11T03:52:00.615Z,91.60
2023-01-11T03:54:29.093Z,91.37
2023-01-11T03:57:14.310Z,91.22
2023-01-11T03:59:41.371Z,91.75
2023-01-11T04:02:21.607Z,92.16
2023-01-11T04:04:48.411Z,92.27
2023-01-11T04:07:15.225Z,92.22
2023-01-11T04:09:41.995Z,92.12
2023-01-11T04:12:08.904Z,92.15
2023-01-11T04:14:35.533Z,92.35
2023-01-11T04:17:02.456Z,91.92
2023-01-11T04:19:29.289Z,91.83
2023-01-11T04:21:55.840Z,91.76
2023-01-11T04:24:22.696Z,92.01
2023-01-11T04:26:49.478Z,91.87
2023-01-11T04:29:16.079Z,91.66
2023-01-11T04:31:43.226Z,91.80
2023-01-11T04:34:10.665Z,91.69
2023-01-11T04:36:37.444Z,91.66
2023-01-11T04:39:04.452Z,91.78
2023-01-11T04:41:50.065Z,91.81
2023-01-11T04:44:16.752Z,91.96
2023-01-11T04:46:43.716Z,91.86
2023-01-11T04:49:10.264Z,91.62
2023-01-11T04:51:36.883Z,92.03
2023-01-11T04:54:03.776Z,91.78
2023-01-11T04:56:30.812Z,91.76
2023-01-11T04:58:57.814Z,92.00
2023-01-11T05:01:24.620Z,92.12
2023-01-11T05:03:51.349Z,92.20
2023-01-11T05:06:24.092Z,92.17
2023-01-11T05:25:19.926Z,92.51
2023-01-11T05:27:48.093Z,92.53
2023-01-11T05:30:16.339Z,92.68
2023-01-11T05:32:44.378Z,92.84
2023-01-11T05:35:12.534Z,92.55
2023-01-11T05:37:40.477Z,92.69
2023-01-11T05:40:08.877Z,92.78
2023-01-11T05:42:36.881Z,92.85
2023-01-11T05:45:23.610Z,92.80
2023-01-11T05:47:52.640Z,92.87
2023-01-11T05:50:20.690Z,92.72
2023-01-11T05:52:48.573Z,92.72
2023-01-11T05:55:16.812Z,92.84
2023-01-11T05:57:45.180Z,92.69
2023-01-11T06:00:14.070Z,92.92
2023-01-11T06:02:42.429Z,92.67
2023-01-11T06:05:10.563Z,92.71
2023-01-11T06:07:38.527Z,92.82
2023-01-11T06:10:06.709Z,92.92
2023-01-11T06:12:34.727Z,92.69
2023-01-11T06:15:02.885Z,92.62
2023-01-11T06:17:31.441Z,92.70
2023-01-11T06:20:00.015Z,92.54
2023-01-11T06:22:28.147Z,92.49
2023-01-11T06:24:56.349Z,92.28
2023-01-11T06:27:24.253Z,92.27
2023-01-11T06:29:52.290Z,91.93
2023-01-11T06:32:20.687Z,91.93
2023-01-11T06:34:48.667Z,92.08
2023-01-11T06:37:16.861Z,92.01
2023-01-11T06:39:45.190Z,91.56
2023-01-11T06:42:13.175Z,91.57
2023-01-11T06:44:41.130Z,91.39
2023-01-11T06:47:09.617Z,91.68
2023-01-11T06:49:37.560Z,91.70
2023-01-11T06:52:05.503Z,91.99
2023-01-11T06:54:33.714Z,92.05
2023-01-11T06:57:01.722Z,92.33
2023-01-11T06:59:29.860Z,92.10
2023-01-11T07:01:59.029Z,92.21
2023-01-11T07:04:27.018Z,91.97
2023-01-11T07:06:55.716Z,91.52
2023-01-11T07:09:23.786Z,91.49
2023-01-11T07:11:51.704Z,91.56
2023-01-11T07:14:20.197Z,91.36
2023-01-11T07:16:48.366Z,90.98
2023-01-11T07:19:18.166Z,90.67
2023-01-11T07:21:46.159Z,90.83
2023-01-11T07:24:14.281Z,90.99
2023-01-11T07:26:43.195Z,90.76
2023-01-11T07:29:11.329Z,90.66
2023-01-11T07:31:39.426Z,90.89
2023-01-11T07:34:07.425Z,91.05
2023-01-11T07:36:39.629Z,90.84
2023-01-11T07:39:08.304Z,90.64
2023-01-11T07:41:55.128Z,90.87
2023-01-11T07:44:24.060Z,90.83
2023-01-11T07:46:52.161Z,90.89
2023-01-11T07:49:20.481Z,91.15
2023-01-11T07:51:48.680Z,91.36
2023-01-11T07:54:16.591Z,91.48
2023-01-11T07:56:45.166Z,91.54
2023-01-11T07:59:13.561Z,91.45
2023-01-11T08:01:41.495Z,91.47
2023-01-11T08:04:12.509Z,91.35
2023-01-11T08:06:41.129Z,91.49
2023-01-11T08:09:10.053Z,91.71
2023-01-11T08:11:56.796Z,91.68
2023-01-11T08:14:40.445Z,91.53
2023-01-11T08:17:10.109Z,91.59
2023-01-11T08:19:38.725Z,91.65
2023-01-11T08:22:06.701Z,91.64
2023-01-11T08:24:37.391Z,91.81
2023-01-11T08:27:05.785Z,91.93
2023-01-11T08:29:33.793Z,92.09
2023-01-11T08:32:02.449Z,92.39
2023-01-11T08:34:32.041Z,92.83
2023-01-11T08:37:02.186Z,93.11
2023-01-11T08:39:33.281Z,93.22
2023-01-11T08:42:03.051Z,93.31
2023-01-11T08:44:34.773Z,93.60
2023-01-11T08:47:03.307Z,93.63
2023-01-11T08:49:31.559Z,93.17
2023-01-11T08:51:59.549Z,93.16
2023-01-11T08:54:27.872Z,92.96
2023-01-11T08:56:55.937Z,92.93
2023-01-11T09:01:09.264Z,93.14
2023-01-11T09:03:37.311Z,93.33
2023-01-11T09:06:05.423Z,93.21
2023-01-11T09:08:33.703Z,93.24
2023-01-11T09:11:01.841Z,93.09
2023-01-11T09:13:29.774Z,93.02
2023-01-11T09:15:58.310Z,93.18
2023-01-11T09:18:27.202Z,93.07
2023-01-11T09:20:55.236Z,92.86
2023-01-11T09:23:23.575Z,92.46
2023-01-11T09:25:51.637Z,92.38
2023-01-11T09:28:19.625Z,92.52
2023-01-11T09:30:47.812Z,92.31
2023-01-11T09:33:16.083Z,91.95
2023-01-11T09:35:46.270Z,91.92
2023-01-11T09:38:14.477Z,92.17
2023-01-11T09:40:55.214Z,91.69
2023-01-11T09:43:27.766Z,91.66
2023-01-11T09:46:00.576Z,91.54
2023-01-11T09:48:33.399Z,90.99
2023-01-11T09:51:02.712Z,90.80
2023-01-11T09:53:38.406Z,90.95
2023-01-11T09:56:10.210Z,90.77
2023-01-11T09:58:46.749Z,90.56
2023-01-11T10:01:20.601Z,89.73
2023-01-11T10:04:00.261Z,89.05
2023-01-11T10:06:28.624Z,88.95
2023-01-11T10:18:25.786Z,87.03
2023-01-11T10:18:26.733Z,87.25
2023-01-11T10:20:54.196Z,87.06
2023-01-11T10:23:28.852Z,86.86
2023-01-11T10:25:59.530Z,86.54
2023-01-11T10:28:43.277Z,86.16
2023-01-11T10:31:34.005Z,84.94
2023-01-11T10:34:21.233Z,84.80
2023-01-11T10:37:13.259Z,84.46
2023-01-11T10:40:01.549Z,84.13
2023-01-11T10:42:31.343Z,84.43
2023-01-11T10:45:12.227Z,83.27
2023-01-11T10:47:48.517Z,83.07
2023-01-11T10:50:24.237Z,82.87
2023-01-11T10:53:06.876Z,82.55
2023-01-11T10:55:43.767Z,82.49
2023-01-11T10:58:22.809Z,82.45
2023-01-11T11:01:08.679Z,82.50
2023-01-11T11:03:55.711Z,81.67
2023-01-11T11:06:43.430Z,80.65
2023-01-11T11:09:20.829Z,80.01
2023-01-11T11:11:53.273Z,79.77
2023-01-11T11:14:28.807Z,79.71
2023-01-11T11:17:13.285Z,79.43
2023-01-11T11:19:42.036Z,79.60
2023-01-11T11:22:12.036Z,79.01
2023-01-11T11:24:46.357Z,79.48
2023-01-11T11:27:14.578Z,79.19
2023-01-11T11:29:44.161Z,78.80
2023-01-11T11:32:30.042Z,78.70
2023-01-11T11:34:58.240Z,78.65
2023-01-11T11:37:28.136Z,78.14
2023-01-11T11:39:56.550Z,78.22
2023-01-11T11:42:25.699Z,78.20
2023-01-11T11:45:05.944Z,78.15
2023-01-11T11:47:34.003Z,77.82
2023-01-11T11:50:42.721Z,77.86
2023-01-11T11:53:16.581Z,78.19
2023-01-11T11:55:44.875Z,78.14
2023-01-11T11:58:16.529Z,78.23
2023-01-11T12:00:46.185Z,77.53
2023-01-11T12:03:19.517Z,77.93
2023-01-11T12:06:02.191Z,77.68
2023-01-11T12:08:33.165Z,77.38
2023-01-11T12:11:06.831Z,77.41
2023-01-11T12:13:36.361Z,77.44
2023-01-11T12:16:06.391Z,77.12
2023-01-11T12:18:37.509Z,76.84
2023-01-11T12:21:09.676Z,77.00
2023-01-11T12:23:37.840Z,76.96
2023-01-11T12:26:12.823Z,76.94
2023-01-11T12:28:56.221Z,76.82
2023-01-11T12:31:36.561Z,77.31
2023-01-11T12:34:24.083Z,77.13
2023-01-11T12:37:05.017Z,77.17
2023-01-11T12:39:41.965Z,77.52
2023-01-11T12:42:28.753Z,77.64
2023-01-11T12:45:02.958Z,77.47
2023-01-11T12:47:42.772Z,77.55
2023-01-11T12:50:13.667Z,77.20
2023-01-11T12:52:54.618Z,77.43
2023-01-11T12:55:41.235Z,77.56
2023-01-11T12:58:28.142Z,77.85
2023-01-11T13:01:05.427Z,77.94
2023-01-11T13:03:34.984Z,77.87
2023-01-11T13:06:12.955Z,77.68
2023-01-11T13:08:53.380Z,77.64
2023-01-11T13:11:43.547Z,77.81
2023-01-11T13:14:11.819Z,77.82
2023-01-11T13:16:46.186Z,77.69
2023-01-11T13:19:40.598Z,77.67
2023-01-11T13:22:14.231Z,77.68
2023-01-11T13:24:45.939Z,77.50
2023-01-11T13:27:19.403Z,77.72
2023-01-11T13:29:48.981Z,77.45
2023-01-11T13:32:19.856Z,77.72
2023-01-11T13:34:57.569Z,77.65
2023-01-11T13:37:28.237Z,77.50
2023-01-11T13:40:01.773Z,77.49
2023-01-11T13:42:41.800Z,77.48
2023-01-11T13:45:16.349Z,77.47
2023-01-11T13:47:47.198Z,77.64
2023-01-11T13:50:18.642Z,77.50
2023-01-11T13:53:01.879Z,77.66
2023-01-11T13:55:41.277Z,77.65
2023-01-11T13:58:09.125Z,77.70
2023-01-11T14:00:41.807Z,77.78
2023-01-11T14:03:39.138Z,77.86
2023-01-11T14:06:22.526Z,78.09
2023-01-11T14:08:50.583Z,78.05
2023-01-11T14:11:25.749Z,78.11
2023-01-11T14:14:15.655Z,78.19
2023-01-11T14:16:58.868Z,78.72
2023-01-11T14:19:31.779Z,79.11
2023-01-11T14:22:18.760Z,79.34
2023-01-11T14:24:59.759Z,79.81
2023-01-11T14:27:46.838Z,80.34
2023-01-11T14:30:33.701Z,80.72
2023-01-11T14:33:20.671Z,81.13
2023-01-11T14:36:01.356Z,81.50
2023-01-11T14:38:42.379Z,81.59
2023-01-11T14:41:10.685Z,81.82
2023-01-11T14:43:38.771Z,81.84
2023-01-11T14:46:25.695Z,82.14
2023-01-11T14:49:12.848Z,82.39
2023-01-11T14:51:44.125Z,82.51
2023-01-11T14:54:12.117Z,82.57
2023-01-11T14:56:43.288Z,82.76
2023-01-11T14:59:26.486Z,82.79
2023-01-11T15:02:03.892Z,82.83
2023-01-11T15:04:33.633Z,83.01
2023-01-11T15:07:20.945Z,83.00
2023-01-11T15:09:50.344Z,83.15
2023-01-11T15:12:20.490Z,83.14
2023-01-11T15:14:50.063Z,83.25
2023-01-11T15:17:38.479Z,83.15
2023-01-11T15:20:11.547Z,83.55
2023-01-11T15:22:40.277Z,83.45
2023-01-11T15:25:21.167Z,83.47
2023-01-11T15:27:49.674Z,83.58
2023-01-11T15:30:34.630Z,83.66
2023-01-11T15:33:17.806Z,83.62
2023-01-11T15:35:55.017Z,83.80
2023-01-11T15:38:32.431Z,83.87
2023-01-11T15:41:24.166Z,84.01
2023-01-11T15:44:15.257Z,83.93
2023-01-11T15:46:56.457Z,84.02
2023-01-11T15:49:33.650Z,84.07
2023-01-11T15:52:01.772Z,83.97
2023-01-11T15:54:48.455Z,83.99
2023-01-11T15:57:26.838Z,84.08
2023-01-11T16:00:10.909Z,84.21
2023-01-11T16:02:57.433Z,84.09
2023-01-11T16:05:27.804Z,84.16
2023-01-11T16:08:02.367Z,84.25
2023-01-11T16:10:31.098Z,84.35
2023-01-11T16:13:18.919Z,84.36
2023-01-11T16:15:56.658Z,84.41
2023-01-11T16:18:27.279Z,84.45
2023-01-11T16:20:58.504Z,84.57
2023-01-11T16:23:27.711Z,84.48
2023-01-11T16:25:57.216Z,84.65
2023-01-11T16:28:26.147Z,84.79
2023-01-11T16:31:01.173Z,84.74
2023-01-11T16:33:30.605Z,84.77
2023-01-11T16:36:07.808Z,84.77
2023-01-11T16:38:44.256Z,84.81
2023-01-11T16:41:14.058Z,84.93
2023-01-11T16:44:08.559Z,84.98
2023-01-11T16:46:36.738Z,85.05
2023-01-11T16:49:11.463Z,84.94
2023-01-11T16:51:39.848Z,85.08
2023-01-11T16:54:13.503Z,85.02
2023-01-11T16:56:46.696Z,84.95
2023-01-11T16:59:14.905Z,85.08
2023-01-11T17:01:55.943Z,85.07
2023-01-11T17:04:37.650Z,85.09
2023-01-11T17:07:11.631Z,85.10
2023-01-11T17:09:41.190Z,85.09
2023-01-11T17:12:14.535Z,85.24
2023-01-11T17:14:45.822Z,85.17
2023-01-11T17:17:14.210Z,85.25
2023-01-11T17:19:44.379Z,85.18
2023-01-11T17:22:32.532Z,85.19
2023-01-11T17:25:01.834Z,85.31
2023-01-11T17:27:35.774Z,85.30
2023-01-11T17:30:05.476Z,85.14
2023-01-11T17:32:37.167Z,85.09
2023-01-11T17:35:07.480Z,85.01
2023-01-11T17:37:35.614Z,85.07
2023-01-11T17:40:05.042Z,85.00
2023-01-11T17:42:52.016Z,84.95
2023-01-11T17:45:21.918Z,85.06
2023-01-11T17:47:54.203Z,84.86
2023-01-11T17:50:24.860Z,85.00
2023-01-11T17:53:22.674Z,84.80
2023-01-11T17:55:52.240Z,84.86
2023-01-11T17:58:29.456Z,84.88
2023-01-11T18:01:10.123Z,84.81
2023-01-11T18:03:42.635Z,84.80
2023-01-11T18:06:29.503Z,84.77
2023-01-11T18:08:58.040Z,84.81
2023-01-11T18:11:34.559Z,84.60
2023-01-11T18:14:04.705Z,84.64
2023-01-11T18:16:33.094Z,84.78
2023-01-11T18:19:01.436Z,84.86
2023-01-11T18:21:32.045Z,84.80
2023-01-11T18:24:09.206Z,84.90
2023-01-11T18:26:38.563Z,84.80
2023-01-11T18:29:06.511Z,84.86
2023-01-11T18:31:34.533Z,84.87
2023-01-11T18:34:02.639Z,85.03
2023-01-11T18:36:30.639Z,84.85
2023-01-11T18:38:58.818Z,84.95
2023-01-11T18:41:45.604Z,85.04
2023-01-11T18:44:13.668Z,84.80
2023-01-11T18:46:42.146Z,84.81
2023-01-11T18:49:10.094Z,84.86
2023-01-11T18:51:41.879Z,84.87
2023-01-11T18:54:15.251Z,84.74
2023-01-11T18:56:43.299Z,84.82
2023-01-11T18:59:11.312Z,84.71
2023-01-11T19:01:52.808Z,84.68
2023-01-11T19:04:26.926Z,84.49
2023-01-11T19:06:54.972Z,84.42
2023-01-11T19:09:23.054Z,84.20
2023-01-11T19:11:51.510Z,84.16
2023-01-11T19:14:19.446Z,84.06
2023-01-11T19:16:47.403Z,84.05
2023-01-11T19:19:15.595Z,83.80
2023-01-11T19:21:43.653Z,83.76
2023-01-11T19:24:11.678Z,83.61
2023-01-11T19:26:39.983Z,83.78
2023-01-11T19:29:07.970Z,83.65
2023-01-11T19:31:35.901Z,83.66
2023-01-11T19:34:04.849Z,83.68
2023-01-11T19:36:32.787Z,83.58
2023-01-11T19:39:00.691Z,83.40
2023-01-11T19:41:49.324Z,83.52
2023-01-11T19:44:17.327Z,83.46
2023-01-11T19:46:46.845Z,83.50
2023-01-11T19:49:15.253Z,83.44
2023-01-11T19:51:43.195Z,83.48
2023-01-11T19:54:13.214Z,83.40
2023-01-11T19:56:41.780Z,83.35
2023-01-11T19:59:10.143Z,83.33
2023-01-11T20:01:38.471Z,83.20
2023-01-11T20:04:06.670Z,83.25
2023-01-11T20:06:34.570Z,83.22
2023-01-11T20:09:02.874Z,83.33
2023-01-11T20:11:30.922Z,83.30
2023-01-11T20:13:58.953Z,83.38
2023-01-11T20:16:26.845Z,83.31
2023-01-11T20:18:56.127Z,83.37
2023-01-11T20:21:25.282Z,83.16
2023-01-11T20:23:54.529Z,83.28
2023-01-11T20:26:22.525Z,83.27
2023-01-11T20:28:51.791Z,83.38
2023-01-11T20:31:20.383Z,83.19
2023-01-11T20:33:48.409Z,83.28
2023-01-11T20:36:17.283Z,83.20
2023-01-11T20:38:45.809Z,83.25
2023-01-11T20:41:35.146Z,83.15
2023-01-11T20:44:04.065Z,83.22
2023-01-11T20:46:32.208Z,83.23
2023-01-11T20:49:00.230Z,83.25
2023-01-11T20:51:28.584Z,83.10
2023-01-11T20:53:56.546Z,83.19
2023-01-11T20:56:24.577Z,83.06
2023-01-11T20:58:53.269Z,83.05
2023-01-11T21:04:13.007Z,83.21
2023-01-11T21:06:42.256Z,83.33
2023-01-11T21:09:12.825Z,83.28
2023-01-11T21:11:42.319Z,83.38
2023-01-11T21:14:12.217Z,83.41
2023-01-11T21:16:41.235Z,83.49
2023-01-11T21:19:11.694Z,83.73
2023-01-11T21:21:39.640Z,83.86
2023-01-11T21:24:07.951Z,83.88
2023-01-11T21:26:36.840Z,84.07
2023-01-11T21:29:05.229Z,84.00
2023-01-11T21:31:34.015Z,84.09
2023-01-11T21:34:03.192Z,84.12
2023-01-11T21:36:31.425Z,84.07
2023-01-11T21:38:59.958Z,84.15
2023-01-11T21:41:47.836Z,84.07
2023-01-11T21:44:16.670Z,84.20
2023-01-11T21:46:45.171Z,84.14
2023-01-11T21:49:13.682Z,84.29
2023-01-11T21:51:42.103Z,84.35
2023-01-11T21:54:11.473Z,84.36
2023-01-11T21:56:39.646Z,84.40
2023-01-11T21:59:07.562Z,84.49
2023-01-11T22:01:36.124Z,84.40
2023-01-11T22:04:04.910Z,84.51
2023-01-11T22:06:43.499Z,84.39
2023-01-11T22:09:12.218Z,84.48
2023-01-11T22:11:40.099Z,84.53
2023-01-11T22:14:08.842Z,84.73
2023-01-11T22:16:37.486Z,84.88
2023-01-11T22:19:07.469Z,84.83
2023-01-11T22:21:36.129Z,84.84
2023-01-11T22:24:05.319Z,85.09
2023-01-11T22:26:35.832Z,85.28
2023-01-11T22:29:15.384Z,85.35
2023-01-11T22:32:01.168Z,85.43
2023-01-11T22:34:29.482Z,85.71
2023-01-11T22:36:57.435Z,85.87
2023-01-11T22:39:25.393Z,85.95
2023-01-11T22:41:53.659Z,86.07
2023-01-11T22:44:21.834Z,86.26
2023-01-11T22:46:49.826Z,86.47
2023-01-11T22:49:19.906Z,86.59
2023-01-11T22:51:48.142Z,86.69
2023-01-11T22:54:16.071Z,86.65
2023-01-11T22:56:45.547Z,86.88
2023-01-11T22:59:13.437Z,87.00
2023-01-11T23:01:41.820Z,87.08
2023-01-11T23:04:11.855Z,87.36
2023-01-11T23:06:41.776Z,87.47
2023-01-11T23:09:16.239Z,87.61
2023-01-11T23:12:03.973Z,87.83
2023-01-11T23:14:33.301Z,87.88
2023-01-11T23:17:06.910Z,88.16
2023-01-11T23:19:36.127Z,88.27
2023-01-11T23:22:04.496Z,88.35
2023-01-11T23:24:32.535Z,88.52
2023-01-11T23:27:00.666Z,88.66
2023-01-11T23:29:28.843Z,88.89
2023-01-11T23:31:56.824Z,89.03
2023-01-11T23:34:25.176Z,89.16
2023-01-11T23:36:53.373Z,89.29
2023-01-11T23:39:21.510Z,89.71
2023-01-11T23:42:08.220Z,89.78
2023-01-11T23:44:36.514Z,89.94
2023-01-11T23:47:25.013Z,90.17
2023-01-11T23:49:54.465Z,90.25
2023-01-11T23:52:24.154Z,90.40
2023-01-11T23:54:52.713Z,90.43
2023-01-11T23:57:21.143Z,90.59
2023-01-11T23:59:49.130Z,90.61
